Time;durP1;ratioP1;P1;durP2;ratioP2;P2;SDS_P1;SDS_P2;PMS_P1;PMS_P2;Temp;Humidity;BMP_temperature;BMP_pressure;BME280_temperature;BME280_humidity;BME280_pressure;Samples;Min_cycle;Max_cycle;Signal;HPM_P1;HPM_P2
2022/01/22 00:01:28;;;;;;;17.58;7.40;;;;;;;;;;5001674;28;20103;-69
2022/01/22 00:03:54;;;;;;;18.23;7.80;;;;;;;;;;5003168;28;20046;-69
2022/01/22 00:06:19;;;;;;;20.58;8.05;;;;;;;;;;5003716;28;20125;-68
2022/01/22 00:08:44;;;;;;;18.38;8.10;;;;;;;;;;4987012;28;20049;-68
2022/01/22 00:11:10;;;;;;;19.77;8.68;;;;;;;;;;4990009;28;20129;-68
2022/01/22 00:16:19;;;;;;;16.65;7.43;;;;;;;;;;5008096;28;20044;-69
2022/01/22 00:18:45;;;;;;;17.83;7.47;;;;;;;;;;5003804;28;20707;-68
2022/01/22 00:21:10;;;;;;;18.88;6.95;;;;;;;;;;5004182;28;20053;-68
2022/01/22 00:23:38;;;;;;;16.45;7.72;;;;;;;;;;5001335;28;20072;-68
2022/01/22 00:26:04;;;;;;;18.83;7.80;;;;;;;;;;5007868;28;20415;-68
2022/01/22 00:28:29;;;;;;;16.83;7.40;;;;;;;;;;5007375;28;20022;-68
2022/01/22 00:30:55;;;;;;;23.10;8.93;;;;;;;;;;5005330;28;20053;-68
2022/01/22 00:33:20;;;;;;;18.80;8.40;;;;;;;;;;5003121;28;20046;-68
2022/01/22 00:35:46;;;;;;;17.63;8.32;;;;;;;;;;4984875;28;20034;-68
2022/01/22 00:38:12;;;;;;;21.42;9.52;;;;;;;;;;5010404;28;20088;-68
2022/01/22 00:40:38;;;;;;;19.77;8.43;;;;;;;;;;4996091;28;20042;-68
2022/01/22 00:43:03;;;;;;;15.85;9.02;;;;;;;;;;5007628;28;20487;-68
2022/01/22 00:45:29;;;;;;;16.00;8.73;;;;;;;;;;5001318;28;20041;-68
2022/01/22 00:47:54;;;;;;;20.70;8.85;;;;;;;;;;5001363;28;20033;-69
2022/01/22 00:50:23;;;;;;;20.00;9.20;;;;;;;;;;5006577;28;20128;-68
2022/01/22 00:52:48;;;;;;;20.35;9.88;;;;;;;;;;4987218;28;20034;-68
2022/01/22 00:55:15;;;;;;;26.02;9.95;;;;;;;;;;5002251;28;20080;-68
2022/01/22 00:57:40;;;;;;;22.27;9.13;;;;;;;;;;5000914;28;20103;-68
2022/01/22 01:00:11;;;;;;;23.73;8.80;;;;;;;;;;5006770;28;20661;-68
2022/01/22 01:02:36;;;;;;;21.45;9.25;;;;;;;;;;5006748;28;20569;-68
2022/01/22 01:05:04;;;;;;;26.60;10.65;;;;;;;;;;5005778;28;20038;-68
2022/01/22 01:07:30;;;;;;;23.13;8.98;;;;;;;;;;4986071;28;20040;-68
2022/01/22 01:09:55;;;;;;;23.83;10.82;;;;;;;;;;5001818;28;20050;-69
2022/01/22 01:12:21;;;;;;;33.10;10.48;;;;;;;;;;5001576;28;20049;-68
2022/01/22 01:14:55;;;;;;;27.50;10.82;;;;;;;;;;5005891;28;20040;-68
2022/01/22 01:17:46;;;;;;;23.80;11.07;;;;;;;;;;4993453;28;20045;-68
2022/01/22 01:34:10;;;;;;;27.30;11.30;;;;;;;;;;5001401;28;20048;-69
2022/01/22 01:36:37;;;;;;;24.83;10.85;;;;;;;;;;5000903;28;20125;-68
2022/01/22 01:39:06;;;;;;;24.17;11.85;;;;;;;;;;5006725;28;20033;-69
2022/01/22 01:41:45;;;;;;;29.08;12.23;;;;;;;;;;5005574;28;20088;-68
2022/01/22 01:44:11;;;;;;;25.08;11.10;;;;;;;;;;5004962;28;20580;-69
2022/01/22 01:46:47;;;;;;;24.63;11.45;;;;;;;;;;4998850;28;20467;-69
2022/01/22 01:49:13;;;;;;;27.63;12.98;;;;;;;;;;4985416;28;20424;-69
2022/01/22 01:51:38;;;;;;;30.35;12.65;;;;;;;;;;5007036;28;20522;-69
2022/01/22 01:54:26;;;;;;;29.40;12.68;;;;;;;;;;5007447;28;20046;-69
2022/01/22 01:59:37;;;;;;;26.38;11.90;;;;;;;;;;5008290;28;20080;-68
2022/01/22 02:02:04;;;;;;;28.10;12.57;;;;;;;;;;5007232;28;20057;-68
2022/01/22 02:04:30;;;;;;;30.48;13.82;;;;;;;;;;5007785;28;20072;-68
2022/01/22 02:06:56;;;;;;;29.40;13.48;;;;;;;;;;4989102;28;20058;-68
2022/01/22 02:09:22;;;;;;;35.55;14.10;;;;;;;;;;4990245;28;20042;-68
2022/01/22 02:11:56;;;;;;;32.33;13.77;;;;;;;;;;4982801;28;20599;-68
2022/01/22 02:25:17;;;;;;;32.13;14.85;;;;;;;;;;5002772;28;20168;-68
2022/01/22 02:27:43;;;;;;;29.35;13.88;;;;;;;;;;5002262;28;20054;-69
2022/01/22 02:30:09;;;;;;;29.45;12.63;;;;;;;;;;5007688;28;20546;-69
2022/01/22 02:35:19;;;;;;;39.25;15.00;;;;;;;;;;5007528;28;20050;-69
2022/01/22 02:37:51;;;;;;;37.67;15.40;;;;;;;;;;5009315;28;20088;-68
2022/01/22 02:40:27;;;;;;;35.80;15.00;;;;;;;;;;4985976;28;20496;-68
2022/01/22 02:42:52;;;;;;;36.38;14.57;;;;;;;;;;5005173;28;20129;-68
2022/01/22 02:45:21;;;;;;;39.78;14.23;;;;;;;;;;5005935;28;20129;-68
2022/01/22 02:47:47;;;;;;;32.58;13.57;;;;;;;;;;5006462;28;20069;-69
2022/01/22 02:50:13;;;;;;;32.65;14.48;;;;;;;;;;4986858;28;20528;-68
2022/01/22 02:52:38;;;;;;;40.67;15.05;;;;;;;;;;4983653;28;20087;-68
2022/01/22 02:55:06;;;;;;;32.80;13.95;;;;;;;;;;5002527;28;21137;-68
2022/01/22 02:57:32;;;;;;;35.00;14.48;;;;;;;;;;5002361;28;20104;-68
2022/01/22 02:59:59;;;;;;;35.15;13.93;;;;;;;;;;5004438;28;20042;-68
2022/01/22 03:02:24;;;;;;;33.88;14.35;;;;;;;;;;5006349;28;20060;-68
2022/01/22 03:04:50;;;;;;;33.78;13.45;;;;;;;;;;5006359;28;20690;-68
2022/01/22 03:07:15;;;;;;;41.03;14.35;;;;;;;;;;5004193;28;20038;-68
2022/01/22 03:09:43;;;;;;;38.33;14.55;;;;;;;;;;5001587;28;20564;-68
2022/01/22 03:17:46;;;;;;;32.38;13.88;;;;;;;;;;5002505;28;20091;-68
2022/01/22 03:27:52;;;;;;;38.25;15.10;;;;;;;;;;5000617;28;20786;-68
2022/01/22 03:30:18;;;;;;;37.75;15.63;;;;;;;;;;5000977;28;20041;-68
2022/01/22 03:32:48;;;;;;;37.58;16.27;;;;;;;;;;4984038;28;20058;-68
2022/01/22 03:35:36;;;;;;;39.30;15.80;;;;;;;;;;5000579;28;20623;-68
2022/01/22 03:37:59;;;;;;;36.42;14.57;;;;;;;;;;5009845;28;20096;-69
2022/01/22 03:40:28;;;;;;;36.42;14.75;;;;;;;;;;5006999;28;20026;-68
2022/01/22 03:42:55;;;;;;;38.53;16.13;;;;;;;;;;5005924;28;20527;-68
2022/01/22 03:45:22;;;;;;;31.38;13.82;;;;;;;;;;5005588;28;20511;-69
2022/01/22 03:47:47;;;;;;;35.08;15.02;;;;;;;;;;5001623;28;20081;-68
2022/01/22 03:50:14;;;;;;;38.15;14.48;;;;;;;;;;4985507;28;20057;-68
2022/01/22 03:52:40;;;;;;;40.55;16.08;;;;;;;;;;5000034;28;20030;-68
2022/01/22 03:55:09;;;;;;;43.30;14.63;;;;;;;;;;5006905;28;20029;-68
2022/01/22 03:57:34;;;;;;;39.38;15.10;;;;;;;;;;5005940;28;20045;-68
2022/01/22 04:00:01;;;;;;;36.83;13.57;;;;;;;;;;5006665;28;20042;-69
2022/01/22 04:05:07;;;;;;;43.15;15.15;;;;;;;;;;5000899;28;20042;-68
2022/01/22 04:10:20;;;;;;;37.72;15.15;;;;;;;;;;4982053;28;20053;-69
2022/01/22 04:15:13;;;;;;;41.85;14.18;;;;;;;;;;4981822;28;20613;-68
2022/01/22 04:25:43;;;;;;;41.67;15.55;;;;;;;;;;4974314;28;20037;-68
2022/01/22 04:28:09;;;;;;;41.33;15.98;;;;;;;;;;5009550;28;20087;-68
2022/01/22 04:30:35;;;;;;;45.00;16.20;;;;;;;;;;5009606;28;20034;-68
2022/01/22 04:33:04;;;;;;;45.63;15.63;;;;;;;;;;4989658;28;20053;-68
2022/01/22 04:35:29;;;;;;;45.88;16.35;;;;;;;;;;5002975;28;20046;-68
2022/01/22 04:37:55;;;;;;;42.17;15.40;;;;;;;;;;5004053;28;20037;-68
2022/01/22 04:40:20;;;;;;;38.10;14.68;;;;;;;;;;5003245;28;20062;-68
2022/01/22 04:42:46;;;;;;;38.40;15.07;;;;;;;;;;5004862;28;20037;-68
2022/01/22 04:55:32;;;;;;;47.78;16.95;;;;;;;;;;4986459;28;20057;-68
2022/01/22 04:57:57;;;;;;;47.97;17.38;;;;;;;;;;4984759;28;20038;-68
2022/01/22 05:00:23;;;;;;;43.97;16.17;;;;;;;;;;4983597;28;20133;-68
2022/01/22 05:02:50;;;;;;;46.88;17.48;;;;;;;;;;4985767;28;20562;-68
2022/01/22 05:05:15;;;;;;;44.97;16.88;;;;;;;;;;4984046;28;20129;-68
2022/01/22 05:07:41;;;;;;;47.33;16.25;;;;;;;;;;4983695;28;20018;-69
2022/01/22 05:10:06;;;;;;;43.83;16.67;;;;;;;;;;4986741;28;20030;-68
2022/01/22 05:12:32;;;;;;;42.30;16.48;;;;;;;;;;4989423;28;20042;-68
2022/01/22 05:14:57;;;;;;;42.85;17.20;;;;;;;;;;4989009;28;20065;-68
2022/01/22 05:17:23;;;;;;;43.05;16.67;;;;;;;;;;4987271;28;20045;-68
2022/01/22 05:19:58;;;;;;;42.30;16.40;;;;;;;;;;4982090;28;20038;-68
2022/01/22 05:22:40;;;;;;;46.78;16.55;;;;;;;;;;4985089;28;20046;-68
2022/01/22 05:25:10;;;;;;;41.42;16.00;;;;;;;;;;4988807;28;20513;-68
2022/01/22 05:38:20;;;;;;;42.88;17.15;;;;;;;;;;4925447;29;20040;-68
2022/01/22 05:40:46;;;;;;;43.38;15.07;;;;;;;;;;4970651;28;20041;-68
2022/01/22 05:43:11;;;;;;;39.70;16.23;;;;;;;;;;4985522;28;20476;-69
2022/01/22 05:45:37;;;;;;;48.65;17.58;;;;;;;;;;4987975;28;20084;-68
2022/01/22 05:48:02;;;;;;;47.22;17.67;;;;;;;;;;4985428;28;21149;-68
2022/01/22 05:50:45;;;;;;;48.50;17.08;;;;;;;;;;4997969;28;20060;-69
2022/01/22 05:53:34;;;;;;;47.92;17.88;;;;;;;;;;5008146;28;20088;-68
2022/01/22 06:01:20;;;;;;;48.95;18.88;;;;;;;;;;4999847;28;20104;-69
2022/01/22 06:03:46;;;;;;;53.03;18.05;;;;;;;;;;5007834;28;20558;-68
2022/01/22 06:06:13;;;;;;;49.35;18.55;;;;;;;;;;5005102;28;20515;-68
2022/01/22 06:08:45;;;;;;;49.08;18.13;;;;;;;;;;5006496;28;20034;-68
2022/01/22 06:11:11;;;;;;;48.58;17.83;;;;;;;;;;5003470;28;20057;-68
2022/01/22 06:13:44;;;;;;;47.53;17.13;;;;;;;;;;5008220;28;20037;-69
2022/01/22 06:16:16;;;;;;;41.25;16.50;;;;;;;;;;4987819;28;20052;-68
2022/01/22 06:18:42;;;;;;;49.15;17.50;;;;;;;;;;4979071;28;20038;-68
2022/01/22 06:21:11;;;;;;;45.63;15.80;;;;;;;;;;4983692;28;20049;-68
2022/01/22 06:23:37;;;;;;;43.05;16.75;;;;;;;;;;4982995;28;20034;-69
2022/01/22 06:26:05;;;;;;;50.38;18.45;;;;;;;;;;4981508;28;20046;-68
2022/01/22 06:28:31;;;;;;;50.13;17.10;;;;;;;;;;4984663;28;20018;-69
2022/01/22 06:30:57;;;;;;;47.97;16.88;;;;;;;;;;4982362;28;20030;-68
2022/01/22 06:33:23;;;;;;;42.42;16.88;;;;;;;;;;4986276;28;20531;-69
2022/01/22 06:35:48;;;;;;;50.95;17.90;;;;;;;;;;4989450;28;20876;-68
2022/01/22 06:38:14;;;;;;;41.78;17.58;;;;;;;;;;4987752;28;20070;-68
2022/01/22 06:43:05;;;;;;;47.40;17.05;;;;;;;;;;4983847;28;20408;-68
2022/01/22 06:45:31;;;;;;;48.95;16.98;;;;;;;;;;4987684;28;20038;-68
2022/01/22 06:47:57;;;;;;;49.30;17.67;;;;;;;;;;4986931;28;20125;-68
2022/01/22 06:50:23;;;;;;;47.80;18.38;;;;;;;;;;4981375;28;20264;-68
2022/01/22 06:52:55;;;;;;;50.30;17.42;;;;;;;;;;4980946;28;20030;-68
2022/01/22 06:55:35;;;;;;;47.83;17.98;;;;;;;;;;5001973;28;20808;-68
2022/01/22 06:58:01;;;;;;;47.50;17.60;;;;;;;;;;5001732;28;20057;-68
2022/01/22 07:00:26;;;;;;;49.08;17.48;;;;;;;;;;5006324;28;20080;-68
2022/01/22 07:02:51;;;;;;;49.00;17.50;;;;;;;;;;5006139;28;20511;-68
2022/01/22 07:05:17;;;;;;;51.58;18.17;;;;;;;;;;5001628;28;20053;-68
2022/01/22 07:07:42;;;;;;;54.30;19.63;;;;;;;;;;5004669;28;20404;-68
2022/01/22 07:10:08;;;;;;;56.28;19.05;;;;;;;;;;5007147;28;20487;-68
2022/01/22 07:12:33;;;;;;;61.05;19.48;;;;;;;;;;5006004;28;20044;-68
2022/01/22 07:14:58;;;;;;;55.50;20.55;;;;;;;;;;4987770;28;20516;-68
2022/01/22 07:17:23;;;;;;;59.15;19.60;;;;;;;;;;4983696;28;20034;-68
2022/01/22 07:19:52;;;;;;;54.75;18.77;;;;;;;;;;4982176;28;20037;-68
2022/01/22 07:25:01;;;;;;;53.67;19.30;;;;;;;;;;4983614;28;20042;-68
2022/01/22 07:27:26;;;;;;;53.22;19.20;;;;;;;;;;4982925;28;20046;-68
2022/01/22 07:29:51;;;;;;;56.95;18.75;;;;;;;;;;4986714;28;20073;-68
2022/01/22 07:32:27;;;;;;;59.30;18.38;;;;;;;;;;4983972;28;20709;-68
2022/01/22 07:34:52;;;;;;;52.05;18.42;;;;;;;;;;4988172;28;20034;-68
2022/01/22 07:37:17;;;;;;;51.33;19.73;;;;;;;;;;4989692;28;20077;-68
2022/01/22 07:39:43;;;;;;;53.47;21.25;;;;;;;;;;4999925;28;20137;-69
2022/01/22 07:42:08;;;;;;;53.22;18.67;;;;;;;;;;4977550;28;20575;-68
2022/01/22 07:44:33;;;;;;;49.20;18.50;;;;;;;;;;4979234;28;20559;-68
2022/01/22 07:46:59;;;;;;;53.70;19.02;;;;;;;;;;4985024;28;20158;-68
2022/01/22 07:49:24;;;;;;;55.67;19.73;;;;;;;;;;4977932;28;20160;-68
2022/01/22 07:51:50;;;;;;;56.33;18.63;;;;;;;;;;4986980;28;20039;-67
2022/01/22 07:54:15;;;;;;;48.75;16.88;;;;;;;;;;4989617;28;20049;-67
2022/01/22 07:56:41;;;;;;;48.28;18.00;;;;;;;;;;4987766;28;20042;-67
2022/01/22 07:59:06;;;;;;;57.90;18.63;;;;;;;;;;4978533;28;20049;-68
2022/01/22 08:01:31;;;;;;;60.83;18.65;;;;;;;;;;4985357;28;20491;-68
2022/01/22 08:03:57;;;;;;;56.90;18.40;;;;;;;;;;4990898;28;20050;-68
2022/01/22 08:06:22;;;;;;;56.95;19.98;;;;;;;;;;4986568;28;20050;-67
2022/01/22 08:08:47;;;;;;;62.72;20.13;;;;;;;;;;4983833;28;20535;-69
2022/01/22 08:11:13;;;;;;;57.47;19.52;;;;;;;;;;4977042;28;20181;-68
2022/01/22 08:13:38;;;;;;;49.88;19.25;;;;;;;;;;4988116;28;20061;-67
2022/01/22 08:16:04;;;;;;;58.63;19.35;;;;;;;;;;4986303;28;20034;-68
2022/01/22 08:18:29;;;;;;;48.70;18.45;;;;;;;;;;4989830;28;20051;-68
2022/01/22 08:20:54;;;;;;;58.85;19.80;;;;;;;;;;4988187;28;20413;-69
2022/01/22 08:23:20;;;;;;;52.15;17.88;;;;;;;;;;4989733;28;20423;-69
2022/01/22 08:25:48;;;;;;;58.78;19.38;;;;;;;;;;4990582;28;20050;-69
2022/01/22 08:31:02;;;;;;;;;;;;;;;;;;4980419;28;20093;-69
2022/01/22 08:35:52;;;;;;;52.83;19.05;;;;;;;;;;4983135;28;20464;-71
2022/01/22 08:36:15;;;;;;;57.00;20.58;;;;;;;;;;4982532;28;20732;-72
2022/01/22 08:38:41;;;;;;;56.38;20.83;;;;;;;;;;4971991;28;20133;-71
2022/01/22 08:41:07;;;;;;;59.15;20.08;;;;;;;;;;4980232;28;20111;-70
2022/01/22 08:43:32;;;;;;;53.80;19.45;;;;;;;;;;4979134;28;20040;-71
2022/01/22 08:46:00;;;;;;;55.95;20.40;;;;;;;;;;4985079;28;20042;-71
2022/01/22 08:48:25;;;;;;;47.83;18.92;;;;;;;;;;4983870;28;20053;-72
2022/01/22 08:50:52;;;;;;;48.75;17.13;;;;;;;;;;4995789;28;20038;-71
2022/01/22 08:53:18;;;;;;;54.58;20.48;;;;;;;;;;4987022;28;20050;-72
2022/01/22 08:55:43;;;;;;;55.70;19.85;;;;;;;;;;4980871;28;20060;-70
2022/01/22 08:58:08;;;;;;;55.38;19.52;;;;;;;;;;4981320;28;21640;-70
2022/01/22 09:00:35;;;;;;;53.90;19.00;;;;;;;;;;4983058;28;20077;-69
2022/01/22 09:03:01;;;;;;;74.95;28.27;;;;;;;;;;4986644;28;20046;-68
2022/01/22 09:05:32;;;;;;;73.03;30.25;;;;;;;;;;4985462;28;20452;-71
2022/01/22 09:07:58;;;;;;;72.30;27.70;;;;;;;;;;4979587;28;20166;-70
2022/01/22 09:10:23;;;;;;;68.38;22.90;;;;;;;;;;4982362;28;20931;-71
2022/01/22 09:12:48;;;;;;;52.70;19.55;;;;;;;;;;4978575;28;20654;-71
2022/01/22 09:15:14;;;;;;;57.08;22.67;;;;;;;;;;4988818;28;20493;-70
2022/01/22 09:17:40;;;;;;;66.70;24.95;;;;;;;;;;4989067;28;20050;-71
2022/01/22 09:20:09;;;;;;;65.97;25.15;;;;;;;;;;4978639;28;20574;-71
2022/01/22 09:22:35;;;;;;;65.57;25.25;;;;;;;;;;4978086;28;20034;-71
2022/01/22 09:25:00;;;;;;;66.18;22.73;;;;;;;;;;4978168;28;20538;-72
2022/01/22 09:27:27;;;;;;;56.90;21.48;;;;;;;;;;4977469;28;20039;-70
2022/01/22 09:29:54;;;;;;;53.22;18.42;;;;;;;;;;4980241;28;20978;-72
2022/01/22 09:32:20;;;;;;;55.80;18.50;;;;;;;;;;4980674;28;20038;-71
2022/01/22 09:34:45;;;;;;;62.00;19.17;;;;;;;;;;4977525;28;20070;-70
2022/01/22 09:37:10;;;;;;;49.80;18.08;;;;;;;;;;4978584;28;20073;-70
2022/01/22 09:39:35;;;;;;;62.35;18.90;;;;;;;;;;4975838;28;20397;-70
2022/01/22 09:42:01;;;;;;;51.13;18.10;;;;;;;;;;4992587;28;20592;-71
2022/01/22 09:44:26;;;;;;;56.90;19.52;;;;;;;;;;5004248;28;20033;-70
2022/01/22 09:46:53;;;;;;;48.25;17.30;;;;;;;;;;4999610;28;20042;-70
2022/01/22 09:49:20;;;;;;;53.60;19.63;;;;;;;;;;5003439;28;20069;-70
2022/01/22 09:51:45;;;;;;;53.10;18.80;;;;;;;;;;4999546;28;20606;-69
2022/01/22 09:54:12;;;;;;;51.60;18.23;;;;;;;;;;4981534;28;20167;-70
2022/01/22 09:56:40;;;;;;;50.97;18.83;;;;;;;;;;4998867;28;20109;-69
2022/01/22 09:59:06;;;;;;;51.38;18.25;;;;;;;;;;4997703;28;20042;-69
2022/01/22 10:01:33;;;;;;;53.22;18.52;;;;;;;;;;4999344;28;20041;-72
2022/01/22 10:04:04;;;;;;;50.30;17.58;;;;;;;;;;5000682;28;20049;-68
2022/01/22 10:06:33;;;;;;;49.58;18.40;;;;;;;;;;4996648;28;21285;-69
2022/01/22 10:09:25;;;;;;;47.17;18.40;;;;;;;;;;5001111;28;20045;-69
2022/01/22 10:12:11;;;;;;;48.55;17.55;;;;;;;;;;4998726;28;20081;-69
2022/01/22 10:15:05;;;;;;;46.63;17.27;;;;;;;;;;4997956;28;20046;-68
2022/01/22 10:17:40;;;;;;;51.13;18.13;;;;;;;;;;5004301;28;20042;-67
2022/01/22 10:20:30;;;;;;;53.13;17.92;;;;;;;;;;5001828;28;20538;-67
2022/01/22 10:23:01;;;;;;;50.40;16.85;;;;;;;;;;5001407;28;20495;-70
2022/01/22 10:25:29;;;;;;;47.42;17.65;;;;;;;;;;4999951;28;20399;-70
2022/01/22 10:28:00;;;;;;;50.17;17.38;;;;;;;;;;5002943;28;20042;-69
2022/01/22 10:30:40;;;;;;;49.70;17.95;;;;;;;;;;5004558;28;20449;-69
2022/01/22 10:35:44;;;;;;;58.97;18.67;;;;;;;;;;4998021;28;20113;-69
2022/01/22 10:38:10;;;;;;;47.47;17.33;;;;;;;;;;4996008;28;20581;-70
2022/01/22 10:40:38;;;;;;;56.67;19.35;;;;;;;;;;4999908;28;20025;-69
2022/01/22 10:43:31;;;;;;;53.83;19.30;;;;;;;;;;5001964;28;20045;-69
2022/01/22 10:46:43;;;;;;;;;;;;;;;;;;5004108;28;20048;-69
2022/01/22 10:49:15;;;;;;;40.03;15.63;;;;;;;;;;4973212;28;20016;-69
2022/01/22 10:51:50;;;;;;;57.28;19.77;;;;;;;;;;4996258;28;20042;-70
2022/01/22 10:54:19;;;;;;;52.65;18.83;;;;;;;;;;4998770;28;20558;-69
2022/01/22 10:56:45;;;;;;;54.83;18.42;;;;;;;;;;5002099;28;20052;-70
2022/01/22 10:59:17;;;;;;;49.63;17.58;;;;;;;;;;4999341;28;20037;-70
2022/01/22 11:01:52;;;;;;;51.33;18.35;;;;;;;;;;4984353;28;20030;-70
2022/01/22 11:04:28;;;;;;;50.30;16.75;;;;;;;;;;4982412;28;20054;-67
2022/01/22 11:06:53;;;;;;;49.15;18.33;;;;;;;;;;4995222;28;20050;-70
2022/01/22 11:09:20;;;;;;;56.13;18.42;;;;;;;;;;5000365;28;20038;-70
2022/01/22 11:11:45;;;;;;;55.78;20.08;;;;;;;;;;5000778;28;20033;-70
2022/01/22 11:14:12;;;;;;;52.55;19.38;;;;;;;;;;4994201;28;20599;-70
2022/01/22 11:16:40;;;;;;;50.28;17.77;;;;;;;;;;4981768;28;20030;-69
2022/01/22 11:19:09;;;;;;;54.10;19.38;;;;;;;;;;4982884;28;20073;-71
2022/01/22 11:21:36;;;;;;;52.20;18.17;;;;;;;;;;4984429;28;20034;-68
2022/01/22 11:24:03;;;;;;;45.50;17.17;;;;;;;;;;4975469;28;21340;-70
2022/01/22 11:26:29;;;;;;;50.42;18.45;;;;;;;;;;4984394;28;20038;-70
2022/01/22 11:28:56;;;;;;;54.08;18.25;;;;;;;;;;4982728;28;20030;-70
2022/01/22 11:31:23;;;;;;;49.63;18.75;;;;;;;;;;4985471;28;20026;-70
2022/01/22 11:33:51;;;;;;;49.78;16.58;;;;;;;;;;4985030;28;20061;-70
2022/01/22 11:36:21;;;;;;;46.75;17.20;;;;;;;;;;4982095;28;20038;-70
2022/01/22 11:38:53;;;;;;;53.33;17.88;;;;;;;;;;4984255;28;20037;-70
2022/01/22 11:41:22;;;;;;;49.90;18.00;;;;;;;;;;4982739;28;20030;-70
2022/01/22 11:44:17;;;;;;;51.08;17.40;;;;;;;;;;4986459;28;20022;-71
2022/01/22 11:46:51;;;;;;;50.60;18.63;;;;;;;;;;4994979;28;20037;-69
2022/01/22 11:49:17;;;;;;;49.20;17.00;;;;;;;;;;4980511;28;20031;-68
2022/01/22 11:51:48;;;;;;;50.42;18.65;;;;;;;;;;4981341;28;20559;-70
2022/01/22 11:54:16;;;;;;;54.30;18.30;;;;;;;;;;4981759;28;20570;-69
2022/01/22 11:56:43;;;;;;;55.85;18.52;;;;;;;;;;4982485;28;20050;-69
2022/01/22 11:59:22;;;;;;;56.00;19.23;;;;;;;;;;4978909;28;20052;-69
2022/01/22 12:01:50;;;;;;;50.67;19.30;;;;;;;;;;4979758;28;20061;-69
2022/01/22 12:04:24;;;;;;;53.00;18.67;;;;;;;;;;4979497;28;20046;-70
2022/01/22 12:07:05;;;;;;;42.85;16.20;;;;;;;;;;4991370;28;20046;-70
2022/01/22 12:09:33;;;;;;;50.95;19.73;;;;;;;;;;4995603;28;20165;-69
2022/01/22 12:15:20;;;;;;;42.55;15.40;;;;;;;;;;4983428;28;20468;-69
2022/01/22 12:17:56;;;;;;;54.15;19.30;;;;;;;;;;4981596;28;20459;-67
2022/01/22 12:23:05;;;;;;;53.20;19.42;;;;;;;;;;4984687;28;20042;-73
2022/01/22 12:25:30;;;;;;;47.22;18.70;;;;;;;;;;4983729;28;20022;-71
2022/01/22 12:27:57;;;;;;;47.03;18.98;;;;;;;;;;4983746;28;20044;-70
2022/01/22 12:30:38;;;;;;;47.78;16.13;;;;;;;;;;4984867;28;20504;-70
2022/01/22 12:33:07;;;;;;;43.78;17.50;;;;;;;;;;4983481;28;20030;-70
2022/01/22 12:35:34;;;;;;;43.55;16.35;;;;;;;;;;4984940;28;20038;-70
2022/01/22 12:38:36;;;;;;;46.15;18.38;;;;;;;;;;4983483;28;20108;-71
2022/01/22 12:41:13;;;;;;;44.17;16.17;;;;;;;;;;4980905;28;20455;-71
2022/01/22 12:43:40;;;;;;;44.45;16.42;;;;;;;;;;4984052;28;20085;-69
2022/01/22 12:46:05;;;;;;;48.78;18.08;;;;;;;;;;4986397;28;20015;-70
2022/01/22 12:48:33;;;;;;;53.72;19.50;;;;;;;;;;4984098;28;20026;-71
2022/01/22 12:51:06;;;;;;;47.67;17.02;;;;;;;;;;4983152;28;20072;-70
2022/01/22 12:53:32;;;;;;;46.47;16.40;;;;;;;;;;4981825;28;20070;-70
2022/01/22 12:58:25;;;;;;;46.10;18.23;;;;;;;;;;4984249;28;20022;-70
2022/01/22 13:00:52;;;;;;;48.00;16.67;;;;;;;;;;4982736;28;20046;-71
2022/01/22 13:03:35;;;;;;;41.60;16.48;;;;;;;;;;4982738;28;20156;-70
2022/01/22 13:06:01;;;;;;;47.47;16.85;;;;;;;;;;4983578;28;20049;-70
2022/01/22 13:08:30;;;;;;;49.58;17.05;;;;;;;;;;4982180;28;20046;-70
2022/01/22 13:10:59;;;;;;;45.92;16.88;;;;;;;;;;4983366;28;20026;-68
2022/01/22 13:13:24;;;;;;;40.42;15.73;;;;;;;;;;4978503;28;20108;-71
2022/01/22 13:16:06;;;;;;;46.63;17.55;;;;;;;;;;4979883;28;20038;-70
2022/01/22 13:18:39;;;;;;;42.83;16.58;;;;;;;;;;4985897;28;20615;-70
2022/01/22 13:21:06;;;;;;;38.13;13.80;;;;;;;;;;4982394;28;20775;-71
2022/01/22 13:23:31;;;;;;;46.28;17.65;;;;;;;;;;4988812;28;20128;-70
2022/01/22 13:25:57;;;;;;;49.80;17.88;;;;;;;;;;5004839;28;20117;-70
2022/01/22 13:28:27;;;;;;;51.60;19.67;;;;;;;;;;5002820;28;20030;-68
2022/01/22 13:30:58;;;;;;;60.80;20.98;;;;;;;;;;5002617;28;20121;-67
2022/01/22 13:33:42;;;;;;;44.20;18.13;;;;;;;;;;4998585;28;20077;-71
2022/01/22 13:39:01;;;;;;;54.25;18.80;;;;;;;;;;4982342;28;20054;-71
2022/01/22 13:49:50;;;;;;;59.85;21.17;;;;;;;;;;5007164;28;20061;-73
2022/01/22 13:52:17;;;;;;;55.47;19.60;;;;;;;;;;5006860;28;20033;-72
2022/01/22 13:54:44;;;;;;;52.90;17.73;;;;;;;;;;4982602;28;20120;-71
2022/01/22 13:57:13;;;;;;;50.85;18.35;;;;;;;;;;4986855;28;20038;-73
2022/01/22 13:59:42;;;;;;;46.72;16.52;;;;;;;;;;4984585;28;20030;-73
2022/01/22 14:04:49;;;;;;;50.50;19.90;;;;;;;;;;4982842;28;20032;-73
2022/01/22 14:07:23;;;;;;;47.30;15.52;;;;;;;;;;4982202;28;20049;-69
2022/01/22 14:09:57;;;;;;;61.70;22.02;;;;;;;;;;4981875;28;20053;-71
2022/01/22 14:12:31;;;;;;;66.22;21.92;;;;;;;;;;4983755;28;20074;-70
2022/01/22 14:14:58;;;;;;;61.50;22.55;;;;;;;;;;4974443;28;20035;-72
2022/01/22 14:17:29;;;;;;;56.08;21.20;;;;;;;;;;4987060;28;20022;-72
2022/01/22 14:20:19;;;;;;;46.47;17.75;;;;;;;;;;4978335;28;20030;-71
2022/01/22 14:22:53;;;;;;;57.83;22.23;;;;;;;;;;4967196;28;20061;-72
2022/01/22 14:25:18;;;;;;;50.03;19.30;;;;;;;;;;4983230;28;20053;-72
2022/01/22 14:27:54;;;;;;;50.63;18.50;;;;;;;;;;4981783;28;20081;-72
2022/01/22 14:30:30;;;;;;;52.90;21.98;;;;;;;;;;4979085;28;20035;-71
2022/01/22 14:32:56;;;;;;;41.13;16.27;;;;;;;;;;4983500;28;20125;-73
2022/01/22 14:35:22;;;;;;;50.08;19.20;;;;;;;;;;4980982;28;20039;-71
2022/01/22 14:37:49;;;;;;;52.65;20.10;;;;;;;;;;4983350;28;20484;-71
2022/01/22 14:45:56;;;;;;;;;;;;;;;;;;5003028;28;20092;-71
2022/01/22 14:48:22;;;;;;;51.45;19.45;;;;;;;;;;5000428;28;19929;-72
2022/01/22 14:50:47;;;;;;;60.05;20.10;;;;;;;;;;5000612;28;20100;-71
2022/01/22 14:53:13;;;;;;;53.47;19.98;;;;;;;;;;5001675;28;20037;-72
2022/01/22 14:55:48;;;;;;;59.90;21.92;;;;;;;;;;5001160;28;20021;-72
2022/01/22 14:58:13;;;;;;;53.80;21.02;;;;;;;;;;4983349;28;20018;-71
2022/01/22 15:00:39;;;;;;;54.65;20.73;;;;;;;;;;4978029;28;20456;-73
2022/01/22 15:03:04;;;;;;;59.33;21.02;;;;;;;;;;4990774;28;20038;-71
2022/01/22 15:05:29;;;;;;;56.38;21.05;;;;;;;;;;5000618;28;20066;-72
2022/01/22 15:07:55;;;;;;;61.83;19.38;;;;;;;;;;5003350;28;21320;-71
2022/01/22 15:10:22;;;;;;;45.55;17.50;;;;;;;;;;5002617;28;20682;-71
2022/01/22 15:12:48;;;;;;;61.80;20.50;;;;;;;;;;5002174;28;20057;-72
2022/01/22 15:15:14;;;;;;;55.30;19.23;;;;;;;;;;5001494;28;20419;-72
2022/01/22 15:17:54;;;;;;;55.45;19.70;;;;;;;;;;5004471;28;20135;-73
2022/01/22 15:20:22;;;;;;;56.63;21.42;;;;;;;;;;5014261;28;20613;-72
2022/01/22 15:22:47;;;;;;;51.38;18.33;;;;;;;;;;5002893;28;20035;-72
2022/01/22 15:25:13;;;;;;;51.97;17.27;;;;;;;;;;5003134;28;20034;-68
2022/01/22 15:27:39;;;;;;;52.47;18.55;;;;;;;;;;4998920;28;20045;-72
2022/01/22 15:30:18;;;;;;;53.08;18.88;;;;;;;;;;5002214;28;20404;-72
2022/01/22 15:35:14;;;;;;;54.53;18.52;;;;;;;;;;5003503;28;20038;-72
2022/01/22 15:37:50;;;;;;;54.78;17.83;;;;;;;;;;4983595;28;20054;-72
2022/01/22 15:40:17;;;;;;;61.83;19.40;;;;;;;;;;4981592;28;20048;-72
2022/01/22 15:42:43;;;;;;;51.53;19.42;;;;;;;;;;4986753;28;20517;-74
2022/01/22 15:45:08;;;;;;;54.78;18.02;;;;;;;;;;4985592;28;20039;-72
2022/01/22 15:47:34;;;;;;;55.60;21.63;;;;;;;;;;4980765;28;20042;-72
2022/01/22 15:49:59;;;;;;;52.50;18.40;;;;;;;;;;4964077;28;20042;-72
2022/01/22 15:52:26;;;;;;;57.22;18.92;;;;;;;;;;4983037;28;20026;-71
2022/01/22 15:54:51;;;;;;;60.13;19.98;;;;;;;;;;4986921;28;20050;-71
2022/01/22 15:57:17;;;;;;;54.97;17.95;;;;;;;;;;4986821;28;20041;-72
2022/01/22 15:59:43;;;;;;;48.97;16.35;;;;;;;;;;4980623;28;20031;-70
2022/01/22 16:02:08;;;;;;;52.70;18.80;;;;;;;;;;4982636;28;20070;-71
2022/01/22 16:04:34;;;;;;;50.13;17.35;;;;;;;;;;4980700;28;20077;-71
2022/01/22 16:07:06;;;;;;;57.00;19.65;;;;;;;;;;4982539;28;21127;-71
2022/01/22 16:09:32;;;;;;;58.20;18.63;;;;;;;;;;4982855;28;20045;-70
2022/01/22 16:11:59;;;;;;;41.42;14.52;;;;;;;;;;4981069;28;20042;-71
2022/01/22 16:14:25;;;;;;;51.60;18.95;;;;;;;;;;4989979;28;20122;-70
2022/01/22 16:16:51;;;;;;;53.65;18.77;;;;;;;;;;4990358;28;20090;-71
2022/01/22 16:19:18;;;;;;;56.40;19.50;;;;;;;;;;4981713;28;20037;-70
2022/01/22 16:21:44;;;;;;;57.15;19.25;;;;;;;;;;4989447;28;20049;-71
2022/01/22 16:24:11;;;;;;;57.75;17.83;;;;;;;;;;4972628;28;20659;-71
2022/01/22 16:26:37;;;;;;;56.15;19.40;;;;;;;;;;4990764;28;20540;-71
2022/01/22 16:29:03;;;;;;;51.95;18.00;;;;;;;;;;4989970;28;20034;-71
2022/01/22 16:31:29;;;;;;;61.47;20.23;;;;;;;;;;4994510;28;20129;-71
2022/01/22 16:33:56;;;;;;;53.53;18.88;;;;;;;;;;4986845;28;20041;-71
2022/01/22 16:36:21;;;;;;;55.92;19.60;;;;;;;;;;4985651;28;20775;-71